Time;durP1;ratioP1;P1;durP2;ratioP2;P2;SDS_P1;SDS_P2;PMS_P1;PMS_P2;Temp;Humidity;BMP_temperature;BMP_pressure;BME280_temperature;BME280_humidity;BME280_pressure;Samples;Min_cycle;Max_cycle;Signal;HPM_P1;HPM_P2
2021/07/22 00:01:27;;;;;;;14.75;8.48;;;;;;;18.31;74.09;99836.44;5114376;28;21324;-74
2021/07/22 00:03:53;;;;;;;11.70;8.93;;;;;;;18.33;73.47;99834.44;5113890;28;20226;-72
2021/07/22 00:06:20;;;;;;;12.30;8.82;;;;;;;18.20;74.10;99836.50;5113880;28;20668;-74
2021/07/22 00:08:48;;;;;;;11.05;7.40;;;;;;;18.28;73.87;99829.38;5114472;28;20190;-73
2021/07/22 00:11:14;;;;;;;8.73;7.82;;;;;;;18.32;73.82;99830.00;5114156;28;20197;-73
2021/07/22 00:13:41;;;;;;;11.75;8.30;;;;;;;18.42;73.41;99830.06;5114450;28;20305;-74
2021/07/22 00:16:08;;;;;;;9.05;8.05;;;;;;;18.39;73.65;99825.75;5114417;28;20712;-73
2021/07/22 00:18:35;;;;;;;11.13;9.10;;;;;;;18.30;73.79;99829.25;5113730;28;20225;-73
2021/07/22 00:21:01;;;;;;;11.02;8.48;;;;;;;18.49;73.13;99831.25;5114178;28;20547;-74
2021/07/22 00:23:28;;;;;;;9.30;7.93;;;;;;;18.19;74.40;99830.19;5114170;28;20186;-73
2021/07/22 00:25:56;;;;;;;8.55;7.55;;;;;;;17.95;75.96;99830.41;5113900;28;20194;-72
2021/07/22 00:28:22;;;;;;;11.45;8.95;;;;;;;17.82;76.88;99835.19;5113346;28;20247;-74
2021/07/22 00:30:49;;;;;;;8.88;7.97;;;;;;;18.03;75.81;99825.19;5113857;28;20186;-73
2021/07/22 00:33:15;;;;;;;10.18;9.20;;;;;;;18.05;75.68;99827.78;5113608;28;20186;-75
2021/07/22 00:35:42;;;;;;;13.25;8.50;;;;;;;17.80;77.44;99831.72;5113571;28;20186;-74
2021/07/22 00:38:09;;;;;;;10.13;9.00;;;;;;;17.77;77.80;99829.22;5113248;28;20239;-74
2021/07/22 00:40:35;;;;;;;9.77;8.82;;;;;;;17.64;78.31;99823.97;5113684;28;20268;-73
2021/07/22 00:43:04;;;;;;;12.75;8.25;;;;;;;17.59;78.76;99829.81;5113835;28;20697;-73
2021/07/22 00:45:31;;;;;;;11.50;8.80;;;;;;;17.65;78.17;99834.72;5113548;28;20307;-73
2021/07/22 00:48:01;;;;;;;12.63;9.40;;;;;;;17.57;78.77;99829.06;5114871;28;20292;-74
2021/07/22 00:50:28;;;;;;;13.25;9.95;;;;;;;17.53;78.77;99827.59;5117667;28;20663;-74
2021/07/22 00:52:55;;;;;;;10.40;8.70;;;;;;;17.55;78.80;99827.44;5117162;28;20196;-74
2021/07/22 00:55:24;;;;;;;13.30;8.23;;;;;;;17.36;79.23;99823.53;5117655;28;20843;-73
2021/07/22 00:57:50;;;;;;;11.35;8.88;;;;;;;17.46;78.88;99819.06;5117829;28;20615;-73
2021/07/22 01:00:18;;;;;;;10.98;8.85;;;;;;;17.39;79.11;99825.13;5117611;28;20204;-74
2021/07/22 01:02:45;;;;;;;9.30;8.25;;;;;;;17.24;79.92;99813.66;5117495;28;20287;-73
2021/07/22 01:05:12;;;;;;;10.88;8.90;;;;;;;17.26;79.74;99812.56;5117753;28;20320;-74
2021/07/22 01:07:38;;;;;;;11.95;9.77;;;;;;;17.29;79.91;99817.72;5117620;28;20290;-73
2021/07/22 01:10:07;;;;;;;9.27;8.35;;;;;;;17.51;78.04;99814.09;5117470;28;20183;-73
2021/07/22 01:12:33;;;;;;;10.77;8.65;;;;;;;17.58;77.46;99811.72;5117371;28;20192;-73
2021/07/22 01:15:00;;;;;;;9.27;8.20;;;;;;;17.48;77.60;99818.94;5117415;28;20315;-73
2021/07/22 01:17:37;;;;;;;9.13;8.23;;;;;;;17.26;78.87;99806.25;5117994;28;20187;-73
2021/07/22 01:20:10;;;;;;;10.18;9.18;;;;;;;17.21;79.72;99811.22;5117858;28;20187;-74
2021/07/22 01:22:36;;;;;;;9.45;8.20;;;;;;;17.11;79.86;99807.50;5117222;28;20188;-73
2021/07/22 01:25:03;;;;;;;12.88;7.75;;;;;;;17.12;79.91;99806.50;5117144;28;20267;-74
2021/07/22 01:27:30;;;;;;;10.93;8.70;;;;;;;17.05;80.26;99808.88;5117005;28;20190;-73
2021/07/22 01:29:57;;;;;;;12.27;9.27;;;;;;;17.04;80.24;99809.88;5117202;28;20193;-73
2021/07/22 01:32:23;;;;;;;10.73;9.35;;;;;;;17.09;80.20;99807.63;5117122;28;20184;-73
2021/07/22 01:34:50;;;;;;;9.90;8.85;;;;;;;16.97;80.77;99797.75;5117367;28;20210;-73
2021/07/22 01:37:18;;;;;;;10.10;9.05;;;;;;;16.92;81.08;99802.72;5117495;28;20204;-72
2021/07/22 01:39:44;;;;;;;13.95;8.95;;;;;;;16.90;81.50;99810.13;5116546;28;20222;-74
2021/07/22 01:42:11;;;;;;;12.48;8.60;;;;;;;16.75;82.73;99801.31;5117037;28;20233;-73
2021/07/22 01:44:38;;;;;;;9.65;7.93;;;;;;;16.83;81.81;99802.47;5117055;28;20597;-72
2021/07/22 01:47:05;;;;;;;10.80;9.25;;;;;;;16.77;82.15;99793.91;5117100;28;20536;-73
2021/07/22 01:49:32;;;;;;;11.20;9.60;;;;;;;16.76;81.90;99800.34;5117080;28;20197;-73
2021/07/22 01:52:00;;;;;;;9.65;8.65;;;;;;;16.82;81.65;99798.03;5116613;28;20282;-74
2021/07/22 01:54:28;;;;;;;10.52;9.00;;;;;;;16.74;82.18;99800.47;5116745;28;20211;-74
2021/07/22 01:56:58;;;;;;;10.65;9.48;;;;;;;16.63;82.90;99803.19;5116619;28;20188;-73
2021/07/22 01:59:24;;;;;;;13.15;8.68;;;;;;;16.50;83.68;99805.13;5117123;28;20569;-73
2021/07/22 02:01:51;;;;;;;10.48;9.20;;;;;;;16.54;83.92;99799.34;5116651;28;20187;-72
2021/07/22 02:04:18;;;;;;;10.82;8.68;;;;;;;16.66;82.94;99806.53;5116462;28;20684;-74
2021/07/22 02:06:44;;;;;;;11.63;8.68;;;;;;;16.78;82.07;99801.06;5117083;28;20606;-73
2021/07/22 02:09:12;;;;;;;9.90;8.50;;;;;;;16.88;81.63;99810.25;5116264;28;20245;-74
2021/07/22 02:11:40;;;;;;;11.70;8.48;;;;;;;16.85;81.30;99803.22;5116197;28;20197;-73
2021/07/22 02:14:06;;;;;;;10.00;8.57;;;;;;;16.85;81.10;99803.22;5116644;28;20684;-72
2021/07/22 02:16:33;;;;;;;9.80;8.80;;;;;;;16.82;81.49;99798.03;5116788;28;20180;-73
2021/07/22 02:19:00;;;;;;;11.07;8.75;;;;;;;16.79;81.25;99792.81;5116461;28;20209;-73
2021/07/22 02:21:26;;;;;;;11.98;8.20;;;;;;;16.83;81.14;99799.75;5116277;28;20271;-73
2021/07/22 02:23:53;;;;;;;10.40;8.68;;;;;;;16.95;80.58;99800.59;5116626;28;20585;-73
2021/07/22 02:26:19;;;;;;;14.95;10.02;;;;;;;16.73;81.69;99797.84;5116172;28;20278;-73
2021/07/22 02:28:47;;;;;;;10.07;8.73;;;;;;;16.66;82.25;99800.19;5115996;28;20195;-73
2021/07/22 02:31:14;;;;;;;10.07;8.75;;;;;;;16.56;82.87;99791.06;5116355;28;20270;-73
2021/07/22 02:33:41;;;;;;;12.80;8.38;;;;;;;16.69;82.23;99799.97;5116066;28;20287;-73
2021/07/22 02:36:07;;;;;;;13.43;9.60;;;;;;;16.69;81.87;99799.97;5115999;28;20204;-72
2021/07/22 02:38:34;;;;;;;10.82;9.73;;;;;;;16.61;82.50;99803.28;5116524;28;20187;-73
2021/07/22 02:41:00;;;;;;;10.27;9.18;;;;;;;16.62;82.21;99801.44;5116002;28;20201;-73
2021/07/22 02:43:27;;;;;;;9.48;8.48;;;;;;;16.54;82.74;99801.19;5116179;28;20188;-74
2021/07/22 02:45:55;;;;;;;9.15;8.25;;;;;;;16.55;82.74;99798.38;5116026;28;20219;-72
2021/07/22 02:48:21;;;;;;;12.20;9.07;;;;;;;16.45;83.08;99810.94;5115592;28;20201;-74
2021/07/22 02:50:48;;;;;;;11.35;8.05;;;;;;;16.54;82.58;99803.91;5115734;28;20685;-73
2021/07/22 02:53:15;;;;;;;12.00;9.07;;;;;;;16.39;83.48;99808.69;5116496;28;20589;-73
2021/07/22 02:55:41;;;;;;;11.60;8.60;;;;;;;16.22;84.70;99807.31;5115505;28;20230;-73
2021/07/22 02:58:08;;;;;;;10.80;9.63;;;;;;;16.26;84.15;99811.53;5115579;28;20295;-73
2021/07/22 03:00:34;;;;;;;9.50;8.50;;;;;;;16.14;85.27;99807.91;5115796;28;20194;-72
2021/07/22 03:03:03;;;;;;;11.48;9.70;;;;;;;16.19;85.23;99803.00;5115480;28;20231;-73
2021/07/22 03:05:30;;;;;;;9.85;8.80;;;;;;;16.21;85.18;99805.56;5115115;28;20187;-75
2021/07/22 03:08:01;;;;;;;11.65;9.00;;;;;;;16.13;85.50;99810.75;5115899;28;20671;-74
2021/07/22 03:10:27;;;;;;;35.80;12.77;;;;;;;16.19;85.53;99808.44;5114272;28;20521;-73
2021/07/22 03:12:54;;;;;;;10.50;9.13;;;;;;;16.24;84.89;99802.63;5115837;28;20184;-73
2021/07/22 03:15:21;;;;;;;10.70;8.80;;;;;;;16.22;84.63;99805.47;5115293;28;20215;-72
2021/07/22 03:17:48;;;;;;;10.38;8.35;;;;;;;16.14;85.17;99804.31;5115551;28;20188;-72
2021/07/22 03:20:16;;;;;;;12.27;9.25;;;;;;;15.97;86.40;99800.22;5114962;28;20215;-72
2021/07/22 03:22:43;;;;;;;12.75;9.57;;;;;;;16.08;86.03;99799.38;5115029;28;20205;-73
2021/07/22 03:25:10;;;;;;;10.45;9.35;;;;;;;15.93;86.58;99805.00;5115112;28;20266;-72
2021/07/22 03:27:37;;;;;;;11.60;9.27;;;;;;;15.90;86.84;99797.13;5114919;28;20222;-73
2021/07/22 03:30:04;;;;;;;10.20;8.73;;;;;;;16.11;85.72;99808.16;5115087;28;20265;-73
2021/07/22 03:32:31;;;;;;;9.95;8.23;;;;;;;16.16;84.79;99805.06;5115027;28;20189;-73
2021/07/22 03:34:57;;;;;;;10.88;9.15;;;;;;;16.23;84.53;99795.44;5115038;28;20211;-73
2021/07/22 03:37:25;;;;;;;11.88;10.10;;;;;;;15.94;85.94;99798.63;5115103;28;20282;-74
2021/07/22 03:39:52;;;;;;;10.90;9.68;;;;;;;15.98;86.12;99800.09;5114572;28;20222;-74
2021/07/22 03:42:18;;;;;;;10.68;9.38;;;;;;;16.04;85.57;99807.75;5114854;28;20286;-74
2021/07/22 03:44:45;;;;;;;14.43;9.77;;;;;;;16.17;84.98;99809.53;5115578;28;20184;-74
2021/07/22 03:47:11;;;;;;;10.48;9.27;;;;;;;16.11;85.04;99799.16;5114612;28;20184;-74
2021/07/22 03:49:38;;;;;;;14.30;9.15;;;;;;;16.19;84.56;99800.28;5114647;28;20206;-74
2021/07/22 03:52:05;;;;;;;15.00;8.70;;;;;;;16.02;85.26;99798.00;5114000;28;20270;-73
2021/07/22 03:54:33;;;;;;;10.23;8.73;;;;;;;15.98;85.45;99800.09;5114644;28;20179;-73
2021/07/22 03:57:01;;;;;;;10.50;8.95;;;;;;;15.96;86.02;99799.34;5115169;28;20183;-74
2021/07/22 03:59:28;;;;;;;10.30;9.30;;;;;;;15.99;85.51;99799.13;5114244;28;20909;-74
2021/07/22 04:01:56;;;;;;;12.23;8.82;;;;;;;16.03;85.54;99794.28;5114666;28;20245;-72
2021/07/22 04:04:22;;;;;;;11.63;9.48;;;;;;;15.96;85.65;99793.91;5114935;28;20280;-73
2021/07/22 04:06:49;;;;;;;12.48;9.05;;;;;;;15.97;85.90;99797.50;5114384;28;20179;-73
2021/07/22 04:09:16;;;;;;;10.65;9.55;;;;;;;16.15;84.74;99796.06;5114430;28;20234;-75
2021/07/22 04:11:44;;;;;;;10.48;9.38;;;;;;;16.01;85.12;99797.16;5114468;28;20537;-73
2021/07/22 04:14:10;;;;;;;10.25;9.00;;;;;;;15.96;85.49;99795.75;5113926;28;20274;-73
2021/07/22 04:16:37;;;;;;;11.38;9.43;;;;;;;16.07;84.85;99800.38;5114301;28;21024;-72
2021/07/22 04:19:04;;;;;;;10.43;9.30;;;;;;;16.12;84.63;99801.72;5114513;28;20516;-73
2021/07/22 04:21:31;;;;;;;11.23;8.98;;;;;;;16.08;84.50;99805.69;5113529;28;20655;-73
2021/07/22 04:23:57;;;;;;;13.65;9.57;;;;;;;16.11;84.37;99808.16;5114270;28;20180;-73
2021/07/22 04:26:24;;;;;;;11.57;9.68;;;;;;;16.12;84.34;99803.56;5115150;28;20175;-73
2021/07/22 04:28:53;;;;;;;13.15;10.07;;;;;;;16.38;82.89;99809.69;5114401;28;20290;-73
2021/07/22 04:31:20;;;;;;;10.18;8.57;;;;;;;16.43;82.80;99815.63;5114464;28;20270;-72
2021/07/22 04:33:47;;;;;;;9.80;8.80;;;;;;;16.46;82.18;99804.50;5113813;28;20274;-73
2021/07/22 04:36:14;;;;;;;10.90;9.00;;;;;;;16.36;82.43;99807.09;5113767;28;20313;-73
2021/07/22 04:38:40;;;;;;;11.35;9.85;;;;;;;16.46;82.59;99813.53;5113644;28;20183;-74
2021/07/22 04:41:08;;;;;;;11.35;9.23;;;;;;;16.45;82.03;99819.09;5114130;28;20184;-73
2021/07/22 04:43:34;;;;;;;13.27;10.02;;;;;;;16.44;81.86;99811.94;5113675;28;20195;-74
2021/07/22 04:46:03;;;;;;;11.40;9.70;;;;;;;16.41;82.01;99820.31;5114167;28;20237;-72
2021/07/22 04:48:30;;;;;;;15.00;11.15;;;;;;;16.32;82.62;99818.31;5114146;28;20605;-73
2021/07/22 04:50:56;;;;;;;11.27;10.07;;;;;;;16.15;83.58;99820.50;5113464;28;20191;-72
2021/07/22 04:53:23;;;;;;;11.75;10.55;;;;;;;16.26;83.39;99817.81;5113957;28;20194;-74
2021/07/22 04:55:50;;;;;;;11.52;10.10;;;;;;;16.22;83.05;99816.34;5113817;28;20679;-73
2021/07/22 04:58:16;;;;;;;13.95;9.90;;;;;;;16.50;82.13;99824.16;5113851;28;20275;-74
2021/07/22 05:00:43;;;;;;;12.63;9.45;;;;;;;16.49;81.67;99827.88;5113797;28;20464;-75
2021/07/22 05:03:11;;;;;;;13.73;11.32;;;;;;;16.62;81.38;99821.34;5113801;28;20266;-73
2021/07/22 05:05:38;;;;;;;11.18;10.05;;;;;;;16.54;80.91;99825.66;5113695;28;20606;-73
2021/07/22 05:08:05;;;;;;;11.80;9.90;;;;;;;16.58;80.93;99816.28;5113442;28;20252;-75
2021/07/22 05:10:32;;;;;;;11.75;9.57;;;;;;;16.38;81.36;99826.00;5113727;28;20205;-72
2021/07/22 05:12:59;;;;;;;10.35;9.35;;;;;;;16.49;81.58;99825.16;5113282;28;20886;-73
2021/07/22 05:15:26;;;;;;;10.93;9.75;;;;;;;16.61;81.03;99824.19;5112936;28;20211;-72
2021/07/22 05:17:52;;;;;;;12.43;10.15;;;;;;;16.90;79.65;99830.03;5113320;28;20295;-73
2021/07/22 05:20:21;;;;;;;11.77;9.90;;;;;;;16.99;78.66;99825.69;5113343;28;20176;-74
2021/07/22 05:22:48;;;;;;;13.05;9.43;;;;;;;17.13;78.06;99836.31;5113837;28;20200;-72
2021/07/22 05:25:15;;;;;;;12.05;9.40;;;;;;;17.29;76.89;99827.75;5113457;28;20637;-72
2021/07/22 05:27:41;;;;;;;12.10;9.43;;;;;;;17.35;76.76;99838.16;5113543;28;20203;-74
2021/07/22 05:30:09;;;;;;;10.48;9.38;;;;;;;17.59;75.46;99837.97;5114232;28;20260;-74
2021/07/22 05:32:35;;;;;;;19.40;12.05;;;;;;;17.55;75.36;99836.50;5113724;28;20189;-73
2021/07/22 05:35:02;;;;;;;11.70;9.60;;;;;;;17.57;74.97;99834.50;5116645;28;20298;-72
2021/07/22 05:37:31;;;;;;;13.95;10.27;;;;;;;17.75;74.39;99833.94;5117132;28;20651;-72
2021/07/22 05:39:57;;;;;;;12.00;10.43;;;;;;;17.75;74.33;99837.56;5116858;28;20252;-73
2021/07/22 05:42:24;;;;;;;12.80;9.35;;;;;;;17.84;73.85;99841.34;5116968;28;20213;-74
2021/07/22 05:44:51;;;;;;;11.60;9.18;;;;;;;17.92;73.11;99838.88;5117456;28;20627;-73
2021/07/22 05:47:17;;;;;;;12.82;9.57;;;;;;;18.24;71.65;99829.78;5116778;28;20245;-74
2021/07/22 05:49:46;;;;;;;13.18;9.40;;;;;;;18.37;71.23;99835.06;5117001;28;20306;-74
2021/07/22 05:52:13;;;;;;;11.45;8.77;;;;;;;18.53;70.22;99829.97;5116894;28;20191;-73
2021/07/22 05:54:41;;;;;;;12.13;9.98;;;;;;;18.71;69.69;99830.22;5116452;28;20202;-73
2021/07/22 05:57:08;;;;;;;16.25;9.63;;;;;;;18.83;68.21;99831.88;5116174;28;20305;-73
2021/07/22 05:59:34;;;;;;;13.10;10.20;;;;;;;18.80;68.50;99825.84;5116569;28;20237;-72
2021/07/22 06:02:01;;;;;;;15.07;9.02;;;;;;;19.16;66.44;99835.34;5115937;28;20194;-74
2021/07/22 06:04:28;;;;;;;13.43;9.68;;;;;;;19.45;64.89;99837.28;5115694;28;20222;-73
2021/07/22 06:06:54;;;;;;;11.77;9.98;;;;;;;19.74;63.58;99834.59;5116500;28;20180;-74
2021/07/22 06:09:21;;;;;;;10.52;8.38;;;;;;;19.99;62.58;99835.94;5116530;28;20187;-73
2021/07/22 06:11:49;;;;;;;11.02;9.65;;;;;;;19.96;62.19;99847.16;5116326;28;20198;-72
2021/07/22 06:14:15;;;;;;;12.80;8.40;;;;;;;19.77;62.38;99840.66;5116695;28;20247;-73
2021/07/22 06:16:42;;;;;;;10.97;8.33;;;;;;;19.66;63.43;99846.22;5116648;28;20262;-73
2021/07/22 06:19:09;;;;;;;10.90;9.03;;;;;;;20.01;61.61;99844.84;5116618;28;20978;-74
2021/07/22 06:21:36;;;;;;;11.13;8.50;;;;;;;19.78;64.19;99841.53;5116360;28;20449;-74
2021/07/22 06:24:02;;;;;;;8.80;7.60;;;;;;;19.95;62.69;99843.56;5116786;28;20489;-73
2021/07/22 06:26:33;;;;;;;17.80;8.70;;;;;;;19.96;63.56;99838.94;5116553;28;20762;-74
2021/07/22 06:29:01;;;;;;;12.93;9.10;;;;;;;20.30;62.46;99831.16;5116226;28;20425;-74
2021/07/22 06:31:28;;;;;;;11.03;8.37;;;;;;;20.25;62.36;99836.19;5115941;28;20435;-74
2021/07/22 06:33:55;;;;;;;9.65;7.78;;;;;;;20.19;62.79;99843.13;5115635;28;20437;-72
2021/07/22 06:36:22;;;;;;;8.50;7.53;;;;;;;20.26;62.82;99837.06;5115106;28;20211;-73
2021/07/22 06:38:49;;;;;;;14.80;8.60;;;;;;;20.31;63.11;99840.25;5115647;28;20268;-73
2021/07/22 06:41:18;;;;;;;15.17;7.57;;;;;;;20.38;62.94;99833.16;5116150;28;20516;-73
2021/07/22 06:43:45;;;;;;;9.77;8.57;;;;;;;20.54;62.20;99840.78;5116038;28;20986;-74
2021/07/22 06:46:13;;;;;;;11.50;8.60;;;;;;;20.53;62.25;99834.44;5115239;28;20528;-73
2021/07/22 06:48:40;;;;;;;9.00;8.00;;;;;;;20.69;61.62;99836.59;5116056;28;20445;-74
2021/07/22 06:51:07;;;;;;;10.33;7.63;;;;;;;20.84;59.72;99831.50;5115840;28;20520;-74
2021/07/22 06:53:34;;;;;;;8.77;7.80;;;;;;;21.21;58.97;99833.34;5116070;28;20445;-74
2021/07/22 06:56:00;;;;;;;13.43;8.30;;;;;;;21.40;57.91;99837.88;5114981;28;20898;-73
2021/07/22 06:58:27;;;;;;;10.20;8.20;;;;;;;21.44;57.66;99836.59;5115298;28;20497;-74
2021/07/22 07:00:53;;;;;;;12.27;8.87;;;;;;;21.52;57.57;99833.91;5115062;28;20520;-74
2021/07/22 07:03:21;;;;;;;9.70;7.50;;;;;;;21.51;57.13;99829.47;5114957;28;20469;-74
2021/07/22 07:05:50;;;;;;;10.47;7.50;;;;;;;21.39;57.89;99831.53;5115472;28;20909;-73
2021/07/22 07:08:16;;;;;;;9.07;7.00;;;;;;;21.92;55.78;99834.53;5115622;28;20425;-74
2021/07/22 07:10:43;;;;;;;12.33;8.80;;;;;;;21.88;55.89;99841.31;5114968;28;20433;-73
2021/07/22 07:13:09;;;;;;;13.13;8.60;;;;;;;22.02;55.62;99833.41;5114815;28;20455;-73
2021/07/22 07:15:37;;;;;;;28.53;7.80;;;;;;;22.06;55.41;99828.47;5114877;28;20433;-73
2021/07/22 07:18:04;;;;;;;7.50;6.50;;;;;;;22.16;54.54;99834.75;5114970;28;20436;-73
2021/07/22 07:20:32;;;;;;;8.27;7.33;;;;;;;22.05;54.93;99835.00;5114897;28;20491;-72
2021/07/22 07:22:59;;;;;;;7.57;6.70;;;;;;;22.18;54.47;99834.56;5114899;28;21017;-74
2021/07/22 07:25:26;;;;;;;7.97;6.77;;;;;;;22.35;53.62;99830.13;5114668;28;20494;-74
2021/07/22 07:27:52;;;;;;;12.90;8.37;;;;;;;22.22;54.13;99834.13;5114741;28;20424;-73
2021/07/22 07:30:19;;;;;;;9.90;7.60;;;;;;;22.45;53.49;99834.50;5113986;28;20512;-73
2021/07/22 07:32:47;;;;;;;8.60;7.70;;;;;;;22.53;53.28;99836.44;5114738;28;20443;-73
2021/07/22 07:35:14;;;;;;;11.37;6.80;;;;;;;22.47;52.78;99837.06;5114294;28;20497;-72
2021/07/22 07:37:42;;;;;;;12.43;7.67;;;;;;;22.62;52.73;99843.69;5114588;28;20549;-74
2021/07/22 07:40:10;;;;;;;12.63;7.17;;;;;;;22.53;53.15;99841.06;5114439;28;20440;-73
2021/07/22 07:42:38;;;;;;;8.87;7.57;;;;;;;22.87;52.00;99825.50;5114992;28;20421;-74
2021/07/22 07:45:06;;;;;;;8.83;7.53;;;;;;;22.93;51.70;99836.84;5114188;28;20444;-74
2021/07/22 07:47:33;;;;;;;7.47;6.03;;;;;;;22.96;51.62;99834.66;5114651;28;20500;-74
2021/07/22 07:50:00;;;;;;;7.37;6.60;;;;;;;22.99;51.44;99830.72;5114940;28;20466;-74
2021/07/22 07:52:27;;;;;;;8.50;6.10;;;;;;;22.88;51.83;99831.84;5114366;28;20533;-74
2021/07/22 07:54:56;;;;;;;9.13;7.30;;;;;;;23.22;51.55;99831.91;5113791;28;20444;-74
2021/07/22 07:57:22;;;;;;;11.17;6.50;;;;;;;23.45;50.58;99828.53;5113046;28;20493;-74
2021/07/22 07:59:49;;;;;;;7.90;7.10;;;;;;;23.57;49.91;99823.59;5113494;28;20443;-73
2021/07/22 08:02:16;;;;;;;8.50;7.30;;;;;;;23.70;49.67;99829.47;5113389;28;20449;-75
2021/07/22 08:04:43;;;;;;;8.80;7.90;;;;;;;23.73;49.46;99829.13;5113491;28;20475;-74
2021/07/22 08:07:09;;;;;;;8.87;7.20;;;;;;;23.93;49.15;99826.97;5113634;28;20421;-73
2021/07/22 08:09:36;;;;;;;13.43;6.60;;;;;;;23.58;49.86;99830.81;5113746;28;20427;-74
2021/07/22 08:12:04;;;;;;;7.70;7.00;;;;;;;23.84;49.13;99828.00;5113502;28;20538;-74
2021/07/22 08:14:36;;;;;;;8.10;6.87;;;;;;;23.67;49.88;99818.78;5113248;28;20524;-74
2021/07/22 08:17:03;;;;;;;8.13;6.27;;;;;;;24.14;48.78;99824.56;5113817;28;20501;-74
2021/07/22 08:19:30;;;;;;;7.77;6.30;;;;;;;23.91;48.92;99824.38;5113858;28;20838;-74
2021/07/22 08:21:56;;;;;;;8.10;6.30;;;;;;;24.17;48.55;99820.59;5113304;28;20906;-72
2021/07/22 08:24:23;;;;;;;11.00;6.80;;;;;;;24.53;47.65;99836.78;5113907;28;20433;-72
2021/07/22 08:26:49;;;;;;;8.90;6.63;;;;;;;24.58;47.78;99819.75;5113330;28;20437;-72
2021/07/22 08:29:17;;;;;;;7.03;5.93;;;;;;;24.56;47.14;99825.44;5113746;28;20417;-73
2021/07/22 08:31:44;;;;;;;8.13;6.70;;;;;;;24.44;46.79;99824.03;5113177;28;20950;-73
2021/07/22 08:34:14;;;;;;;9.50;6.63;;;;;;;24.40;46.41;99822.66;5112649;28;20429;-74
2021/07/22 08:36:41;;;;;;;8.30;6.40;;;;;;;24.54;46.32;99831.13;5113165;28;20476;-73
2021/07/22 08:39:08;;;;;;;10.20;7.23;;;;;;;24.40;46.52;99829.03;5113554;28;20437;-74
2021/07/22 08:41:35;;;;;;;11.40;6.97;;;;;;;24.81;46.38;99820.75;5113231;28;20867;-74
2021/07/22 08:44:06;;;;;;;9.97;6.53;;;;;;;24.91;45.85;99823.31;5113152;28;20437;-74
2021/07/22 08:46:35;;;;;;;7.67;6.13;;;;;;;25.14;45.19;99815.97;5113605;28;20876;-74
2021/07/22 08:49:03;;;;;;;6.30;5.63;;;;;;;25.38;45.09;99820.56;5113212;28;20508;-73
2021/07/22 08:51:31;;;;;;;9.90;7.00;;;;;;;25.48;44.78;99820.34;5112291;28;20437;-74
2021/07/22 08:53:58;;;;;;;11.47;8.80;;;;;;;25.44;44.79;99816.25;5112698;28;20441;-73
2021/07/22 08:56:27;;;;;;;11.17;7.07;;;;;;;25.53;44.88;99812.41;5113398;28;20547;-73
2021/07/22 08:58:57;;;;;;;7.83;7.00;;;;;;;25.51;45.03;99808.13;5112953;28;20441;-73
2021/07/22 09:01:27;;;;;;;7.50;5.80;;;;;;;25.77;44.36;99810.53;5112315;28;20432;-74
2021/07/22 09:03:58;;;;;;;8.10;7.30;;;;;;;25.72;44.50;99813.81;5092350;28;20480;-73
2021/07/22 09:06:24;;;;;;;10.63;8.70;;;;;;;25.91;44.20;99818.03;5093262;28;20418;-74
2021/07/22 09:08:51;;;;;;;7.97;7.07;;;;;;;25.85;44.41;99816.00;5114458;28;20846;-73
2021/07/22 09:11:17;;;;;;;6.80;5.80;;;;;;;25.56;44.83;99820.31;5117645;28;20886;-75
2021/07/22 09:13:44;;;;;;;7.07;6.37;;;;;;;25.71;44.76;99816.75;5117789;28;20453;-74
2021/07/22 09:16:11;;;;;;;7.60;6.80;;;;;;;25.85;44.05;99813.25;5117022;28;20509;-73
2021/07/22 09:18:45;;;;;;;10.30;7.20;;;;;;;26.16;43.66;99812.34;5117045;28;20525;-74
2021/07/22 09:21:23;;;;;;;8.17;6.43;;;;;;;26.28;43.23;99807.25;5117245;28;20512;-75
2021/07/22 09:24:04;;;;;;;7.07;6.37;;;;;;;26.15;43.53;99810.63;5117597;28;20506;-73
2021/07/22 09:26:32;;;;;;;8.23;7.23;;;;;;;26.30;43.25;99811.53;5117283;28;20417;-75
2021/07/22 09:29:04;;;;;;;8.00;7.20;;;;;;;26.17;43.34;99809.41;5117793;28;20777;-73
2021/07/22 09:31:31;;;;;;;7.87;6.90;;;;;;;26.38;43.11;99811.44;5117178;28;20938;-73
2021/07/22 09:33:58;;;;;;;8.43;7.30;;;;;;;26.63;42.53;99805.72;5117527;28;20457;-74
2021/07/22 09:36:35;;;;;;;9.13;7.07;;;;;;;26.67;41.76;99807.06;5116793;28;20480;-75
2021/07/22 09:39:20;;;;;;;9.27;7.40;;;;;;;26.74;42.35;99807.16;5116884;28;20433;-74
2021/07/22 09:41:46;;;;;;;7.70;6.90;;;;;;;26.80;41.93;99804.50;5117092;28;21072;-74
2021/07/22 09:44:30;;;;;;;8.23;7.40;;;;;;;26.83;41.98;99801.34;5116750;28;20441;-75
2021/07/22 09:46:57;;;;;;;9.27;6.93;;;;;;;27.00;41.77;99810.34;5116740;28;20507;-74
2021/07/22 09:49:31;;;;;;;7.63;6.83;;;;;;;26.65;42.07;99809.16;5116603;28;20443;-73
2021/07/22 09:52:01;;;;;;;7.67;6.90;;;;;;;26.48;42.13;99802.03;5116854;28;20425;-74
2021/07/22 09:54:34;;;;;;;10.60;7.10;;;;;;;26.44;42.25;99797.97;5116536;28;20433;-74
2021/07/22 09:57:03;;;;;;;8.70;7.80;;;;;;;26.45;42.10;99802.44;5116650;28;20469;-73
2021/07/22 09:59:30;;;;;;;10.27;7.07;;;;;;;26.83;41.05;99800.50;5116720;28;20914;-73
2021/07/22 10:01:59;;;;;;;8.00;6.80;;;;;;;27.13;40.16;99793.06;5116062;28;20445;-73
2021/07/22 10:04:30;;;;;;;11.47;8.00;;;;;;;27.29;40.08;99791.19;5116305;28;20623;-74
2021/07/22 10:07:03;;;;;;;8.17;6.70;;;;;;;27.15;40.74;99795.66;5116350;28;20748;-74
2021/07/22 10:09:34;;;;;;;8.70;7.00;;;;;;;27.34;40.90;99788.69;5116887;28;20781;-74
2021/07/22 10:12:02;;;;;;;8.13;6.77;;;;;;;26.71;41.59;99794.59;5116171;28;20441;-73
2021/07/22 10:14:29;;;;;;;8.67;7.47;;;;;;;26.57;41.57;99795.41;5116507;28;20421;-74
2021/07/22 10:17:00;;;;;;;10.00;7.30;;;;;;;26.88;41.32;99792.50;5116673;28;20485;-73
2021/07/22 10:19:28;;;;;;;7.83;7.13;;;;;;;27.09;40.86;99786.22;5115563;28;20433;-73
2021/07/22 10:21:57;;;;;;;11.83;7.13;;;;;;;27.37;40.50;99780.88;5115220;28;20427;-75
2021/07/22 10:24:26;;;;;;;10.20;7.27;;;;;;;27.00;41.46;99781.81;5116613;28;20915;-74
2021/07/22 10:26:53;;;;;;;9.03;7.53;;;;;;;27.37;39.94;99786.41;5116771;28;20444;-74
2021/07/22 10:29:20;;;;;;;7.97;7.27;;;;;;;27.82;38.66;99780.75;5104936;28;20425;-73
2021/07/22 10:31:50;;;;;;;7.80;7.00;;;;;;;27.65;39.41;99782.88;5116383;28;20469;-76
2021/07/22 10:34:18;;;;;;;7.60;6.80;;;;;;;27.94;38.83;99778.34;5115960;28;20508;-74
2021/07/22 10:36:48;;;;;;;9.80;7.20;;;;;;;27.39;39.27;99787.06;5116353;28;20461;-73
2021/07/22 10:39:15;;;;;;;8.10;7.30;;;;;;;27.24;39.49;99778.78;5115835;28;21048;-74
2021/07/22 10:41:43;;;;;;;8.83;7.53;;;;;;;27.16;39.81;99778.88;5116137;28;20844;-73
2021/07/22 10:44:31;;;;;;;8.70;7.67;;;;;;;26.22;41.90;99770.19;5116135;28;20776;-74
2021/07/22 10:46:59;;;;;;;9.33;7.27;;;;;;;26.10;42.52;99777.22;5115257;28;20516;-74
2021/07/22 10:49:37;;;;;;;10.07;7.33;;;;;;;26.15;42.13;99764.56;5115485;28;20464;-74
2021/07/22 10:52:04;;;;;;;13.00;8.53;;;;;;;26.29;41.82;99773.94;5115246;28;20494;-74
2021/07/22 10:54:44;;;;;;;11.20;7.53;;;;;;;26.04;41.61;99780.72;5115870;28;20927;-74
2021/07/22 10:57:37;;;;;;;9.13;7.23;;;;;;;26.09;41.30;99761.69;5114811;28;20496;-74
2021/07/22 11:00:06;;;;;;;8.60;7.07;;;;;;;26.89;40.20;99758.31;5115292;28;20422;-73
2021/07/22 11:02:45;;;;;;;7.60;6.83;;;;;;;26.98;39.47;99756.31;5115460;28;20873;-75
2021/07/22 11:05:32;;;;;;;8.57;7.33;;;;;;;27.13;39.33;99756.28;5114280;28;20486;-74
2021/07/22 11:08:20;;;;;;;8.63;7.73;;;;;;;27.51;38.93;99765.28;5114769;28;20565;-74
2021/07/22 11:10:56;;;;;;;10.10;7.50;;;;;;;27.96;37.79;99760.47;5115243;28;20456;-74
2021/07/22 11:13:54;;;;;;;9.07;7.50;;;;;;;28.40;36.64;99762.16;5114455;28;21022;-72
2021/07/22 11:16:25;;;;;;;11.40;6.80;;;;;;;28.65;35.58;99751.50;5056586;28;20946;-74
2021/07/22 11:18:54;;;;;;;15.43;11.70;;;;;;;28.98;35.61;99752.72;5114526;28;20472;-75
2021/07/22 11:21:26;;;;;;;8.17;7.30;;;;;;;28.65;36.58;99747.84;5115304;28;20508;-73
2021/07/22 11:24:01;;;;;;;7.57;6.87;;;;;;;28.13;37.27;99746.34;5114119;28;20512;-73
2021/07/22 11:26:29;;;;;;;8.97;8.07;;;;;;;27.35;38.78;99746.19;5114231;28;20508;-73
2021/07/22 11:28:58;;;;;;;8.37;7.47;;;;;;;27.44;38.74;99745.84;5114423;28;20504;-74
2021/07/22 11:31:24;;;;;;;11.73;9.40;;;;;;;27.81;38.21;99743.03;5113772;28;20476;-73